createdAt,value
2022-10-11T00:01:52.304Z,7.38
2022-10-11T00:04:42.519Z,8.00
2022-10-11T00:07:26.514Z,7.40
2022-10-11T00:10:12.505Z,7.65
2022-10-11T00:12:55.708Z,7.68
2022-10-11T00:15:42.195Z,7.22
2022-10-11T00:18:27.735Z,7.78
2022-10-11T00:21:18.198Z,7.15
2022-10-11T00:24:02.303Z,7.38
2022-10-11T00:26:55.783Z,7.30
2022-10-11T00:29:39.879Z,7.32
2022-10-11T00:32:32.543Z,7.43
2022-10-11T00:35:28.717Z,7.07
2022-10-11T00:38:10.243Z,7.00
2022-10-11T00:40:55.677Z,7.68
2022-10-11T00:43:40.102Z,7.30
2022-10-11T00:46:29.042Z,6.45
2022-10-11T00:49:58.407Z,6.93
2022-10-11T00:52:43.682Z,6.72
2022-10-11T00:55:29.543Z,6.85
2022-10-11T00:58:20.804Z,6.90
2022-10-11T01:01:06.555Z,6.90
2022-10-11T01:03:56.143Z,8.55
2022-10-11T01:06:40.330Z,6.30
2022-10-11T01:09:24.315Z,7.00
2022-10-11T01:12:13.689Z,6.38
2022-10-11T01:15:19.402Z,6.22
2022-10-11T01:18:23.472Z,6.43
2022-10-11T01:21:12.505Z,6.53
2022-10-11T01:24:08.669Z,7.05
2022-10-11T01:27:18.793Z,8.10
2022-10-11T01:30:26.746Z,6.95
2022-10-11T01:33:12.030Z,7.00
2022-10-11T01:36:18.562Z,7.07
2022-10-11T01:39:14.810Z,6.80
2022-10-11T01:41:59.046Z,7.28
2022-10-11T01:44:52.471Z,6.68
2022-10-11T01:47:36.006Z,7.30
2022-10-11T01:50:47.416Z,6.20
2022-10-11T01:53:57.219Z,6.88
2022-10-11T02:07:10.442Z,6.70
2022-10-11T02:20:21.956Z,7.10
2022-10-11T02:34:00.118Z,6.28
2022-10-11T02:37:06.559Z,5.93
2022-10-11T02:50:15.851Z,6.03
2022-10-11T02:53:01.892Z,5.63
2022-10-11T02:55:46.046Z,5.70
2022-10-11T03:08:54.124Z,5.35
2022-10-11T03:11:45.030Z,5.53
2022-10-11T03:14:34.263Z,5.72
2022-10-11T03:17:35.536Z,4.82
2022-10-11T03:20:26.952Z,5.75
2022-10-11T03:23:10.918Z,5.90
2022-10-11T03:36:19.167Z,5.28
2022-10-11T03:49:26.786Z,5.20
2022-10-11T03:52:11.373Z,5.00
2022-10-11T03:54:56.705Z,5.32
2022-10-11T03:57:40.647Z,5.20
2022-10-11T04:00:25.765Z,5.35
2022-10-11T04:03:10.272Z,5.60
2022-10-11T04:05:54.267Z,4.95
2022-10-11T04:08:44.804Z,5.07
2022-10-11T04:11:30.327Z,5.03
2022-10-11T04:24:37.964Z,4.85
2022-10-11T04:27:24.576Z,5.03
2022-10-11T04:30:12.337Z,4.80
2022-10-11T04:33:00.178Z,5.00
2022-10-11T04:35:44.339Z,4.63
2022-10-11T04:38:27.941Z,5.45
2022-10-11T04:41:13.370Z,5.32
2022-10-11T04:43:58.249Z,5.40
2022-10-11T04:46:40.815Z,4.68
2022-10-11T04:49:25.883Z,4.70
2022-10-11T04:52:10.679Z,4.70
2022-10-11T04:55:16.421Z,4.45
2022-10-11T04:58:01.458Z,4.82
2022-10-11T05:00:46.131Z,4.80
2022-10-11T05:03:30.396Z,4.68
2022-10-11T05:06:15.150Z,4.97
2022-10-11T05:09:02.018Z,4.80
2022-10-11T05:11:45.685Z,4.75
2022-10-11T05:14:30.453Z,4.40
2022-10-11T05:17:23.867Z,4.70
2022-10-11T05:20:16.506Z,4.32
2022-10-11T05:23:01.208Z,4.43
2022-10-11T05:25:46.378Z,4.00
2022-10-11T05:28:31.249Z,4.22
2022-10-11T05:31:16.997Z,3.97
2022-10-11T05:34:02.920Z,4.00
2022-10-11T05:36:48.509Z,3.92
2022-10-11T05:39:34.731Z,4.10
2022-10-11T05:42:20.587Z,4.05
2022-10-11T05:45:06.359Z,4.22
2022-10-11T05:47:56.816Z,4.32
2022-10-11T05:50:48.872Z,4.03
2022-10-11T05:53:34.419Z,4.00
2022-10-11T05:56:26.789Z,4.82
2022-10-11T05:59:18.593Z,4.13
2022-10-11T06:02:03.300Z,3.78
2022-10-11T06:04:47.919Z,4.00
2022-10-11T06:07:49.027Z,4.40
2022-10-11T06:10:34.175Z,3.85
2022-10-11T06:13:18.283Z,4.35
2022-10-11T06:16:20.389Z,4.28
2022-10-11T06:19:41.818Z,4.38
2022-10-11T06:33:06.585Z,3.60
2022-10-11T06:36:15.280Z,4.03
2022-10-11T06:39:22.491Z,3.63
2022-10-11T06:42:45.403Z,3.08
2022-10-11T06:45:42.200Z,4.13
2022-10-11T06:48:43.199Z,3.63
2022-10-11T06:51:48.716Z,3.28
2022-10-11T06:54:46.830Z,3.33
2022-10-11T06:57:48.103Z,3.20
2022-10-11T07:01:04.775Z,3.35
2022-10-11T07:04:04.259Z,3.33
2022-10-11T07:07:00.843Z,3.42
2022-10-11T07:10:06.532Z,3.08
2022-10-11T07:13:16.296Z,3.35
2022-10-11T07:16:38.416Z,3.03
2022-10-11T07:19:50.013Z,2.90
2022-10-11T07:23:08.061Z,3.30
2022-10-11T07:26:17.368Z,3.25
2022-10-11T07:29:25.737Z,2.75
2022-10-11T07:32:26.357Z,3.10
2022-10-11T07:35:43.742Z,2.70
2022-10-11T07:38:52.363Z,2.60
2022-10-11T07:41:50.017Z,2.53
2022-10-11T07:44:51.291Z,2.55
2022-10-11T07:48:07.932Z,2.42
2022-10-11T07:51:20.231Z,2.60
2022-10-11T07:54:22.525Z,2.60
2022-10-11T07:57:26.179Z,2.67
2022-10-11T08:00:27.801Z,1.98
2022-10-11T08:03:39.887Z,2.30
2022-10-11T08:06:54.711Z,2.20
2022-10-11T08:09:51.508Z,2.50
2022-10-11T08:13:13.100Z,1.85
2022-10-11T08:16:22.463Z,2.28
2022-10-11T08:19:23.501Z,2.10
2022-10-11T08:22:26.814Z,2.30
2022-10-11T08:25:32.949Z,2.28
2022-10-11T08:28:35.738Z,2.80
2022-10-11T08:31:53.461Z,2.90
2022-10-11T08:35:02.566Z,3.25
2022-10-11T08:38:05.082Z,3.10
2022-10-11T08:41:52.519Z,3.38
2022-10-11T08:45:13.886Z,3.88
2022-10-11T08:47:50.540Z,3.65
2022-10-11T08:50:28.235Z,3.13
2022-10-11T08:53:06.736Z,3.95
2022-10-11T08:55:56.234Z,4.13
2022-10-11T08:58:33.599Z,4.13
2022-10-11T09:01:04.459Z,3.95
2022-10-11T09:03:37.922Z,3.78
2022-10-11T09:08:59.689Z,3.95
2022-10-11T09:11:54.507Z,3.95
2022-10-11T09:14:30.911Z,3.40
2022-10-11T09:17:16.307Z,3.13
2022-10-11T09:19:59.330Z,3.60
2022-10-11T09:22:52.665Z,3.20
2022-10-11T09:25:29.776Z,3.13
2022-10-11T09:28:09.366Z,3.50
2022-10-11T09:30:40.632Z,3.25
2022-10-11T09:33:23.023Z,3.33
2022-10-11T09:35:53.532Z,3.17
2022-10-11T09:39:06.713Z,3.45
2022-10-11T09:42:04.493Z,2.47
2022-10-11T09:45:02.080Z,2.90
2022-10-11T09:47:34.253Z,3.28
2022-10-11T09:50:14.023Z,3.00
2022-10-11T09:52:51.572Z,3.13
2022-10-11T09:56:10.336Z,3.00
2022-10-11T09:59:33.330Z,2.58
2022-10-11T10:02:15.694Z,2.38
2022-10-11T10:05:06.148Z,2.63
2022-10-11T10:07:37.858Z,2.40
2022-10-11T10:10:33.047Z,2.30
2022-10-11T10:13:05.439Z,2.20
2022-10-11T10:15:39.163Z,2.38
2022-10-11T10:18:15.538Z,2.20
2022-10-11T10:20:45.570Z,2.17
2022-10-11T10:23:51.859Z,2.38
2022-10-11T10:26:23.545Z,2.08
2022-10-11T10:29:11.497Z,2.25
2022-10-11T10:32:12.889Z,2.10
2022-10-11T10:34:52.483Z,2.00
2022-10-11T10:37:34.346Z,2.10
2022-10-11T10:40:08.383Z,2.20
2022-10-11T10:42:38.327Z,2.22
2022-10-11T10:45:12.573Z,2.10
2022-10-11T10:48:13.141Z,1.98
2022-10-11T10:50:55.363Z,1.90
2022-10-11T10:53:42.533Z,2.17
2022-10-11T10:56:21.235Z,2.05
2022-10-11T10:59:15.762Z,1.90
2022-10-11T11:02:01.162Z,2.35
2022-10-11T11:04:41.225Z,1.95
2022-10-11T11:07:20.533Z,2.10
2022-10-11T11:09:53.307Z,1.92
2022-10-11T11:12:23.317Z,1.80
2022-10-11T11:15:02.481Z,1.75
2022-10-11T11:17:51.609Z,1.88
2022-10-11T11:20:21.598Z,1.60
2022-10-11T11:23:05.194Z,1.80
2022-10-11T11:28:20.141Z,1.90
2022-10-11T11:31:09.755Z,1.80
2022-10-11T11:33:47.798Z,1.58
2022-10-11T11:36:26.822Z,1.60
2022-10-11T11:39:01.942Z,1.60
2022-10-11T11:41:50.127Z,1.80
2022-10-11T11:44:34.603Z,1.98
2022-10-11T11:47:13.952Z,1.77
2022-10-11T11:49:50.220Z,1.90
2022-10-11T11:52:28.685Z,1.88
2022-10-11T11:55:20.911Z,2.10
2022-10-11T11:57:51.165Z,1.83
2022-10-11T12:00:32.675Z,1.80
2022-10-11T12:03:02.632Z,1.70
2022-10-11T12:05:37.208Z,1.90
2022-10-11T12:08:30.834Z,1.60
2022-10-11T12:11:05.737Z,1.80
2022-10-11T12:13:45.798Z,1.52
2022-10-11T12:16:16.300Z,1.33
2022-10-11T12:18:58.505Z,1.73
2022-10-11T12:21:35.781Z,1.60
2022-10-11T12:24:08.569Z,1.40
2022-10-11T12:26:57.633Z,1.50
2022-10-11T12:29:29.002Z,1.40
2022-10-11T12:32:02.253Z,1.65
2022-10-11T12:34:32.322Z,1.60
2022-10-11T12:37:21.643Z,1.40
2022-10-11T12:39:59.635Z,1.50
2022-10-11T12:42:34.950Z,1.50
2022-10-11T12:45:14.812Z,1.73
2022-10-11T12:48:03.153Z,1.60
2022-10-11T12:50:50.401Z,1.48
2022-10-11T12:53:32.364Z,1.73
2022-10-11T12:56:02.721Z,1.55
2022-10-11T12:58:42.795Z,1.70
2022-10-11T13:01:18.966Z,1.98
2022-10-11T13:04:08.921Z,1.58
2022-10-11T13:06:49.833Z,1.60
2022-10-11T13:09:32.952Z,1.58
2022-10-11T13:12:26.533Z,1.70
2022-10-11T13:17:38.711Z,1.52
2022-10-11T13:20:28.870Z,1.48
2022-10-11T13:22:59.254Z,1.80
2022-10-11T13:25:38.220Z,1.58
2022-10-11T13:28:08.366Z,1.50
2022-10-11T13:30:49.413Z,1.85
2022-10-11T13:33:36.370Z,1.60
2022-10-11T13:36:08.609Z,1.70
2022-10-11T13:38:39.437Z,1.67
2022-10-11T13:41:12.613Z,1.98
2022-10-11T13:43:42.685Z,1.50
2022-10-11T13:46:21.167Z,1.70
2022-10-11T13:49:06.314Z,1.52
2022-10-11T13:51:38.424Z,1.73
2022-10-11T13:54:13.631Z,1.40
2022-10-11T13:56:52.176Z,1.77
2022-10-11T13:59:26.788Z,1.70
2022-10-11T14:01:59.999Z,1.60
2022-10-11T14:04:42.232Z,1.50
2022-10-11T14:07:39.055Z,1.50
2022-10-11T14:10:09.417Z,1.65
2022-10-11T14:12:45.412Z,1.50
2022-10-11T14:15:26.648Z,1.88
2022-10-11T14:17:56.742Z,1.58
2022-10-11T14:20:35.578Z,1.60
2022-10-11T14:23:05.588Z,1.30
2022-10-11T14:25:35.623Z,1.67
2022-10-11T14:28:06.885Z,1.60
2022-10-11T14:30:37.230Z,1.55
2022-10-11T14:33:07.389Z,2.00
2022-10-11T14:35:39.908Z,1.63
2022-10-11T14:38:12.840Z,3.13
2022-10-11T14:40:42.929Z,4.57
2022-10-11T14:43:12.959Z,2.88
2022-10-11T14:45:43.005Z,2.97
2022-10-11T14:48:12.958Z,2.60
2022-10-11T14:50:49.006Z,2.90
2022-10-11T14:53:19.103Z,2.92
2022-10-11T14:55:49.498Z,2.72
2022-10-11T14:58:19.605Z,2.53
2022-10-11T15:00:49.599Z,3.22
2022-10-11T15:03:19.682Z,2.70
2022-10-11T15:05:49.660Z,2.65
2022-10-11T15:08:20.629Z,2.72
2022-10-11T15:10:50.675Z,2.40
2022-10-11T15:13:20.861Z,2.72
2022-10-11T15:15:53.856Z,2.17
2022-10-11T15:18:23.893Z,2.25
2022-10-11T15:20:56.131Z,2.38
2022-10-11T15:23:27.054Z,2.50
2022-10-11T15:25:57.066Z,3.00
2022-10-11T15:28:33.866Z,2.17
2022-10-11T15:31:04.270Z,2.63
2022-10-11T15:33:34.309Z,2.58
2022-10-11T15:36:04.723Z,2.90
2022-10-11T15:38:35.096Z,2.90
2022-10-11T15:41:05.283Z,2.30
2022-10-11T15:43:35.316Z,2.72
2022-10-11T15:46:05.494Z,2.20
2022-10-11T15:48:35.683Z,2.10
2022-10-11T15:51:05.718Z,2.63
2022-10-11T15:53:36.458Z,2.50
2022-10-11T15:56:09.120Z,2.20
2022-10-11T15:58:41.717Z,2.50
2022-10-11T16:01:18.808Z,2.22
2022-10-11T16:03:50.095Z,2.50
2022-10-11T16:06:20.485Z,2.30
2022-10-11T16:08:51.336Z,2.35
2022-10-11T16:11:21.815Z,2.38
2022-10-11T16:13:52.767Z,2.40
2022-10-11T16:16:23.022Z,2.42
2022-10-11T16:18:53.964Z,2.70
2022-10-11T16:21:25.420Z,1.95
2022-10-11T16:23:55.640Z,2.35
2022-10-11T16:26:25.820Z,1.95
2022-10-11T16:28:57.978Z,2.85
2022-10-11T16:31:28.392Z,2.20
2022-10-11T16:33:58.993Z,1.80
2022-10-11T16:36:36.926Z,2.22
2022-10-11T16:39:19.125Z,2.10
2022-10-11T16:41:49.261Z,2.05
2022-10-11T16:44:22.597Z,1.98
2022-10-11T16:46:53.040Z,2.20
2022-10-11T16:49:25.558Z,2.25
2022-10-11T16:51:56.662Z,2.20
2022-10-11T16:54:28.365Z,2.30
2022-10-11T16:56:58.746Z,2.30
2022-10-11T16:59:34.686Z,2.13
2022-10-11T17:02:06.235Z,2.22
2022-10-11T17:04:36.495Z,2.20
2022-10-11T17:07:09.243Z,2.20
2022-10-11T17:09:44.368Z,1.90
2022-10-11T17:12:15.463Z,2.00
2022-10-11T17:14:49.942Z,1.90
2022-10-11T17:17:20.196Z,1.95
2022-10-11T17:19:50.515Z,2.00
2022-10-11T17:22:21.242Z,1.98
2022-10-11T17:24:51.584Z,2.10
2022-10-11T17:27:21.531Z,1.73
2022-10-11T17:29:51.920Z,1.95
2022-10-11T17:32:22.161Z,1.90
2022-10-11T17:34:52.539Z,2.03
2022-10-11T17:37:22.543Z,2.30
2022-10-11T17:39:52.588Z,2.30
2022-10-11T17:42:22.633Z,1.90
2022-10-11T17:44:53.493Z,2.25
2022-10-11T17:47:23.832Z,2.13
2022-10-11T17:49:54.874Z,1.90
2022-10-11T17:52:25.323Z,2.03
2022-10-11T17:54:58.690Z,1.90
2022-10-11T17:57:28.919Z,1.80
2022-10-11T17:59:58.972Z,2.30
2022-10-11T18:02:29.055Z,2.08
2022-10-11T18:04:59.233Z,1.75
2022-10-11T18:07:30.394Z,2.63
2022-10-11T18:10:00.541Z,1.70
2022-10-11T18:12:31.303Z,1.77
2022-10-11T18:15:03.048Z,1.73
2022-10-11T18:17:33.327Z,1.83
2022-10-11T18:20:04.010Z,1.75
2022-10-11T18:22:34.698Z,1.80
2022-10-11T18:25:05.035Z,1.75
2022-10-11T18:27:35.377Z,1.65
2022-10-11T18:30:08.207Z,1.90
2022-10-11T18:32:38.850Z,1.50
2022-10-11T18:35:09.337Z,1.65
2022-10-11T18:37:39.352Z,1.63
2022-10-11T18:40:10.553Z,1.83
2022-10-11T18:42:44.289Z,1.65
2022-10-11T18:45:20.411Z,1.83
2022-10-11T18:47:52.446Z,1.60
2022-10-11T18:50:23.148Z,1.63
2022-10-11T18:52:53.372Z,1.80
2022-10-11T18:55:24.308Z,1.40
2022-10-11T18:57:54.353Z,1.98
2022-10-11T19:00:44.854Z,1.60
2022-10-11T19:03:14.645Z,1.60
2022-10-11T19:05:44.985Z,1.88
2022-10-11T19:08:15.215Z,1.70
2022-10-11T19:10:46.547Z,1.90
2022-10-11T19:13:16.724Z,1.58
2022-10-11T19:15:46.826Z,1.75
2022-10-11T19:18:20.299Z,1.58
2022-10-11T19:20:51.229Z,1.88
2022-10-11T19:23:21.868Z,1.60
2022-10-11T19:25:52.324Z,1.80
2022-10-11T19:28:22.478Z,1.33
2022-10-11T19:30:53.146Z,1.80
2022-10-11T19:33:23.626Z,1.63
2022-10-11T19:35:57.930Z,2.05
2022-10-11T19:38:28.146Z,1.75
2022-10-11T19:40:58.125Z,1.70
2022-10-11T19:43:28.380Z,1.52
2022-10-11T19:46:04.281Z,1.42
2022-10-11T19:48:34.531Z,1.50
2022-10-11T19:51:09.612Z,2.00
2022-10-11T19:53:40.319Z,1.65
2022-10-11T19:56:12.609Z,1.92
2022-10-11T19:58:42.983Z,1.48
2022-10-11T20:01:23.928Z,1.70
2022-10-11T20:03:59.992Z,1.80
2022-10-11T20:06:34.578Z,1.60
2022-10-11T20:09:28.539Z,2.08
2022-10-11T20:11:59.689Z,2.15
2022-10-11T20:14:29.780Z,1.63
2022-10-11T20:16:59.975Z,1.70
2022-10-11T20:19:31.640Z,1.50
2022-10-11T20:22:02.281Z,1.50
2022-10-11T20:24:35.369Z,1.55
2022-10-11T20:27:06.527Z,2.05
2022-10-11T20:29:36.891Z,1.33
2022-10-11T20:32:06.961Z,1.60
2022-10-11T20:34:40.654Z,1.88
2022-10-11T20:37:11.052Z,1.35
2022-10-11T20:39:41.157Z,1.65
2022-10-11T20:42:11.403Z,1.73
2022-10-11T20:44:41.875Z,1.67
2022-10-11T20:47:12.164Z,1.55
2022-10-11T20:49:42.693Z,1.40
2022-10-11T20:52:12.781Z,1.50
2022-10-11T20:54:43.087Z,1.70
2022-10-11T20:57:13.331Z,1.90
2022-10-11T20:59:43.802Z,1.35
2022-10-11T21:02:18.687Z,1.60
2022-10-11T21:04:49.726Z,1.50
2022-10-11T21:07:19.761Z,1.55
2022-10-11T21:09:50.030Z,1.40
2022-10-11T21:12:20.342Z,1.55
2022-10-11T21:14:50.360Z,1.50
2022-10-11T21:17:20.703Z,1.40
2022-10-11T21:19:50.746Z,1.50
2022-10-11T21:22:22.200Z,1.52
2022-10-11T21:24:52.272Z,1.60
2022-10-11T21:27:22.444Z,1.33
2022-10-11T21:29:52.625Z,1.42
2022-10-11T21:32:22.592Z,1.55
2022-10-11T21:34:52.595Z,1.58
2022-10-11T21:37:22.505Z,1.38
2022-10-11T21:39:52.425Z,1.42
2022-10-11T21:42:25.878Z,1.20
2022-10-11T21:44:58.943Z,1.63
2022-10-11T21:47:30.751Z,1.27
2022-10-11T21:50:01.420Z,1.50
2022-10-11T21:52:32.193Z,1.40
2022-10-11T21:55:02.319Z,1.30
2022-10-11T21:57:32.249Z,1.38
2022-10-11T22:00:02.300Z,1.40
2022-10-11T22:02:42.930Z,1.45
2022-10-11T22:05:12.874Z,1.40
2022-10-11T22:07:42.834Z,1.40
2022-10-11T22:10:13.002Z,1.65
2022-10-11T22:12:42.992Z,1.40
2022-10-11T22:15:13.048Z,1.20
2022-10-11T22:17:43.126Z,1.40
2022-10-11T22:20:13.093Z,1.40
2022-10-11T22:22:43.092Z,1.30
2022-10-11T22:25:13.113Z,2.22
2022-10-11T22:27:43.121Z,1.77
2022-10-11T22:30:13.313Z,1.50
2022-10-11T22:32:43.374Z,1.50
2022-10-11T22:35:13.320Z,1.38
2022-10-11T22:37:43.397Z,1.48
2022-10-11T22:40:13.687Z,1.52
2022-10-11T22:42:43.649Z,1.63
2022-10-11T22:45:13.778Z,1.90
2022-10-11T22:47:43.876Z,1.50
2022-10-11T22:50:13.818Z,1.80
2022-10-11T22:52:44.277Z,1.52
2022-10-11T22:55:18.966Z,1.60
2022-10-11T22:57:49.859Z,1.40
2022-10-11T23:00:20.469Z,1.60
2022-10-11T23:02:51.392Z,1.50
2022-10-11T23:05:21.466Z,1.63
2022-10-11T23:07:51.429Z,1.27
2022-10-11T23:10:21.433Z,2.17
2022-10-11T23:12:51.360Z,1.52
2022-10-11T23:15:21.472Z,1.80
2022-10-11T23:17:51.526Z,1.50
2022-10-11T23:20:21.475Z,1.70
2022-10-11T23:22:51.612Z,1.50
2022-10-11T23:25:21.661Z,1.73
2022-10-11T23:27:51.618Z,1.35
2022-10-11T23:30:21.566Z,1.48
2022-10-11T23:32:51.654Z,1.70
2022-10-11T23:35:21.619Z,1.48
2022-10-11T23:37:51.846Z,2.03
2022-10-11T23:40:24.865Z,1.50
2022-10-11T23:42:58.519Z,2.13
2022-10-11T23:45:28.668Z,1.48
2022-10-11T23:47:58.702Z,1.67
2022-10-11T23:50:28.660Z,1.52
2022-10-11T23:52:58.635Z,2.08
2022-10-11T23:55:28.614Z,1.70
2022-10-11T23:57:58.559Z,2.53
